Time;durP1;ratioP1;P1;durP2;ratioP2;P2;SDS_P1;SDS_P2;PMS_P1;PMS_P2;Temp;Humidity;BMP_temperature;BMP_pressure;BME280_temperature;BME280_humidity;BME280_pressure;Samples;Min_cycle;Max_cycle;Signal;HPM_P1;HPM_P2
2022/03/31 00:00:18;;;;;;;4.57;1.17;;;3.90;99.90;;;;;;5060076;28;20056;-72
2022/03/31 00:02:44;;;;;;;6.28;1.13;;;3.80;99.90;;;;;;5053356;28;20117;-72
2022/03/31 00:05:10;;;;;;;2.05;0.70;;;3.80;99.90;;;;;;5078428;28;20040;-72
2022/03/31 00:07:57;;;;;;;4.00;0.90;;;3.70;99.90;;;;;;5062452;28;20316;-72
2022/03/31 00:10:28;;;;;;;1.83;0.93;;;3.80;99.90;;;;;;5059239;28;20036;-72
2022/03/31 00:12:56;;;;;;;1.27;0.80;;;3.80;99.90;;;;;;5058883;28;20079;-73
2022/03/31 00:15:23;;;;;;;2.65;0.70;;;4.20;99.90;;;;;;5061067;28;20083;-72
2022/03/31 00:17:49;;;;;;;2.47;1.08;;;3.80;99.90;;;;;;5062059;28;20037;-73
2022/03/31 00:20:15;;;;;;;3.85;0.93;;;3.70;99.90;;;;;;5055250;28;20090;-72
2022/03/31 00:22:41;;;;;;;2.38;0.80;;;3.70;99.90;;;;;;5074972;28;20079;-72
2022/03/31 00:25:08;;;;;;;7.82;0.90;;;3.70;99.90;;;;;;5060628;28;20037;-73
2022/03/31 00:27:35;;;;;;;1.85;0.88;;;3.70;99.90;;;;;;5066946;28;20094;-73
2022/03/31 00:30:02;;;;;;;1.40;0.80;;;3.70;99.90;;;;;;5077255;28;20197;-73
2022/03/31 00:32:28;;;;;;;3.88;0.95;;;3.70;99.90;;;;;;5066533;28;20095;-73
2022/03/31 00:34:53;;;;;;;0.95;0.70;;;3.70;99.90;;;;;;5010530;28;20053;-72
2022/03/31 00:37:20;;;;;;;2.50;0.95;;;3.70;99.90;;;;;;5077160;28;20036;-72
2022/03/31 00:39:47;;;;;;;4.05;1.30;;;3.70;99.90;;;;;;5052079;28;20043;-72
2022/03/31 00:42:13;;;;;;;2.50;0.98;;;3.70;99.90;;;;;;5031279;28;20687;-72
2022/03/31 00:44:38;;;;;;;4.13;1.50;;;3.80;99.90;;;;;;5058744;28;20220;-72
2022/03/31 00:47:04;;;;;;;1.42;0.90;;;3.80;99.90;;;;;;5079091;28;20107;-72
2022/03/31 00:49:32;;;;;;;2.22;0.80;;;3.80;99.90;;;;;;5074883;28;20264;-72
2022/03/31 00:51:57;;;;;;;3.38;0.98;;;3.80;99.90;;;;;;5046332;28;20094;-72
2022/03/31 00:54:27;;;;;;;4.38;1.23;;;3.80;99.90;;;;;;5076088;28;20036;-72
2022/03/31 00:56:55;;;;;;;2.17;1.15;;;3.80;99.90;;;;;;5076064;28;20047;-72
2022/03/31 00:59:21;;;;;;;2.17;1.23;;;3.80;99.90;;;;;;5075330;28;20059;-72
2022/03/31 01:01:49;;;;;;;4.82;1.90;;;4.00;99.90;;;;;;5073701;28;20049;-73
2022/03/31 01:04:15;;;;;;;2.30;1.58;;;4.10;99.90;;;;;;5064070;28;20044;-72
2022/03/31 01:06:44;;;;;;;5.32;2.08;;;4.10;99.90;;;;;;5065110;28;20036;-73
2022/03/31 01:09:12;;;;;;;2.53;2.00;;;4.20;99.90;;;;;;5044803;28;20093;-72
2022/03/31 01:11:39;;;;;;;3.55;2.22;;;4.30;99.90;;;;;;5076972;28;20056;-72
2022/03/31 01:14:06;;;;;;;3.55;2.10;;;5.10;99.90;;;;;;5059045;28;20319;-72
2022/03/31 01:16:33;;;;;;;5.50;2.20;;;4.30;99.90;;;;;;5075630;28;20063;-71
2022/03/31 01:19:04;;;;;;;4.00;2.42;;;4.50;99.90;;;;;;5079026;28;20046;-71
2022/03/31 01:21:30;;;;;;;3.38;2.40;;;4.60;99.90;;;;;;5069662;28;20044;-72
2022/03/31 01:23:56;;;;;;;2.45;2.10;;;4.70;99.90;;;;;;5047612;28;20105;-72
2022/03/31 01:26:22;;;;;;;4.25;2.65;;;4.60;99.90;;;;;;5058491;28;20265;-71
2022/03/31 01:28:48;;;;;;;4.65;2.80;;;4.60;99.90;;;;;;5070670;28;20506;-71
2022/03/31 01:31:14;;;;;;;3.55;2.47;;;4.80;99.90;;;;;;5048711;28;20234;-72
2022/03/31 01:33:41;;;;;;;5.45;3.20;;;4.90;99.90;;;;;;5071936;28;20029;-71
2022/03/31 01:36:07;;;;;;;3.88;2.80;;;4.90;99.90;;;;;;5071257;28;20071;-72
2022/03/31 01:38:33;;;;;;;4.45;2.80;;;5.00;99.90;;;;;;5062001;28;20044;-73
2022/03/31 01:40:59;;;;;;;3.30;2.50;;;5.40;99.90;;;;;;5052043;28;20051;-72
2022/03/31 01:43:26;;;;;;;5.13;3.05;;;5.00;99.90;;;;;;5057575;28;20045;-72
2022/03/31 01:45:54;;;;;;;4.47;2.90;;;5.60;99.90;;;;;;5062184;28;20337;-72
2022/03/31 01:48:20;;;;;;;4.00;2.90;;;5.30;99.90;;;;;;5067601;28;20098;-72
2022/03/31 01:50:46;;;;;;;4.00;3.25;;;5.20;99.90;;;;;;5060103;28;20048;-73
2022/03/31 01:53:14;;;;;;;7.25;3.35;;;6.00;99.90;;;;;;5047771;28;20056;-73
2022/03/31 01:55:40;;;;;;;4.57;3.55;;;5.30;99.90;;;;;;5062286;28;20048;-73
2022/03/31 01:58:07;;;;;;;3.47;3.17;;;5.40;99.90;;;;;;5069696;28;20428;-74
2022/03/31 02:00:33;;;;;;;5.63;4.07;;;5.60;99.90;;;;;;5061202;28;20104;-72
2022/03/31 02:02:59;;;;;;;5.05;3.88;;;5.50;99.90;;;;;;5074012;28;20219;-73
2022/03/31 02:05:25;;;;;;;6.68;4.10;;;6.30;99.90;;;;;;5076059;28;20040;-72
2022/03/31 02:07:58;;;;;;;6.32;4.50;;;6.00;99.90;;;;;;5077137;28;20067;-73
2022/03/31 02:10:27;;;;;;;5.25;3.85;;;6.50;99.90;;;;;;5071298;28;20072;-72
2022/03/31 02:12:54;;;;;;;6.20;4.18;;;5.90;99.90;;;;;;5073533;28;20037;-72
2022/03/31 02:15:21;;;;;;;6.72;4.55;;;5.80;99.90;;;;;;5072967;28;20238;-75
2022/03/31 02:17:48;;;;;;;5.55;4.00;;;6.00;99.90;;;;;;5066916;28;20056;-72
2022/03/31 02:20:14;;;;;;;6.40;4.03;;;6.00;99.90;;;;;;5043389;28;20323;-72
2022/03/31 02:22:40;;;;;;;5.43;4.13;;;7.30;99.90;;;;;;5050315;28;20048;-72
2022/03/31 02:25:10;;;;;;;5.88;4.05;;;6.20;99.90;;;;;;5054512;28;20282;-72
2022/03/31 02:27:36;;;;;;;5.20;3.85;;;6.30;99.90;;;;;;5068707;28;20041;-71
2022/03/31 02:30:05;;;;;;;7.43;4.60;;;6.40;99.90;;;;;;5049330;28;20192;-72
2022/03/31 02:32:31;;;;;;;6.72;3.83;;;6.60;99.90;;;;;;5068017;28;20291;-72
2022/03/31 02:34:57;;;;;;;4.80;3.75;;;7.70;99.90;;;;;;5075395;28;20028;-72
2022/03/31 02:37:23;;;;;;;6.10;4.28;;;6.70;99.90;;;;;;5057889;28;20260;-73
2022/03/31 02:39:49;;;;;;;4.82;3.92;;;6.70;99.90;;;;;;5077668;28;20230;-73
2022/03/31 02:42:16;;;;;;;6.05;3.95;;;6.70;99.90;;;;;;5074859;28;20047;-71
2022/03/31 02:44:42;;;;;;;4.90;3.95;;;6.70;99.90;;;;;;5061229;28;20033;-72
2022/03/31 02:47:09;;;;;;;4.70;3.70;;;6.80;99.90;;;;;;5045852;28;20044;-72
2022/03/31 02:49:35;;;;;;;4.50;3.42;;;6.90;99.90;;;;;;5064752;28;20244;-72
2022/03/31 02:52:01;;;;;;;4.90;3.22;;;6.80;99.90;;;;;;5065297;28;20199;-72
2022/03/31 02:57:12;;;;;;;4.45;3.50;;;6.90;99.90;;;;;;5061559;28;20094;-73
2022/03/31 02:59:38;;;;;;;4.22;3.67;;;7.10;99.90;;;;;;5046251;28;20044;-73
2022/03/31 03:02:04;;;;;;;6.22;3.45;;;7.30;99.90;;;;;;5072943;28;20036;-73
2022/03/31 03:04:30;;;;;;;4.78;3.38;;;7.00;99.90;;;;;;5031509;28;20041;-73
2022/03/31 03:06:56;;;;;;;3.65;2.92;;;7.20;99.90;;;;;;5073346;28;20204;-73
2022/03/31 03:09:22;;;;;;;4.72;3.50;;;7.00;99.90;;;;;;5061378;28;20036;-73
2022/03/31 03:11:48;;;;;;;4.22;3.45;;;7.20;99.90;;;;;;5063891;28;20052;-73
2022/03/31 03:14:14;;;;;;;4.85;3.40;;;7.40;99.90;;;;;;5076512;28;20231;-74
2022/03/31 03:16:42;;;;;;;5.85;3.78;;;7.20;99.90;;;;;;5062403;28;20032;-72
2022/03/31 03:19:09;;;;;;;3.85;3.45;;;7.50;99.90;;;;;;5046631;28;20036;-72
2022/03/31 03:21:35;;;;;;;4.80;3.70;;;7.10;99.90;;;;;;5047124;28;20045;-71
2022/03/31 03:24:02;;;;;;;4.18;3.78;;;7.30;99.90;;;;;;5062598;28;20163;-72
2022/03/31 03:26:29;;;;;;;4.72;4.30;;;7.40;99.90;;;;;;5078001;28;20051;-72
2022/03/31 03:28:55;;;;;;;4.60;4.07;;;7.60;99.90;;;;;;5059240;28;20063;-72
2022/03/31 03:31:21;;;;;;;4.85;4.35;;;7.20;99.90;;;;;;5043564;28;20570;-71
2022/03/31 03:33:47;;;;;;;5.13;4.35;;;7.30;99.90;;;;;;5062671;28;20040;-71
2022/03/31 03:36:16;;;;;;;5.47;4.75;;;7.50;99.90;;;;;;5062796;28;20052;-71
2022/03/31 03:38:42;;;;;;;5.00;4.50;;;7.70;99.90;;;;;;5045469;28;20222;-71
2022/03/31 03:41:12;;;;;;;5.55;4.68;;;7.20;99.90;;;;;;5081523;28;20147;-72
2022/03/31 03:43:42;;;;;;;4.43;4.03;;;7.80;99.90;;;;;;5049514;28;20036;-72
2022/03/31 03:46:08;;;;;;;5.00;4.50;;;8.50;99.90;;;;;;5058120;28;20053;-73
2022/03/31 03:48:34;;;;;;;5.95;5.15;;;7.80;99.90;;;;;;5060535;28;20230;-73
2022/03/31 03:51:00;;;;;;;4.95;4.40;;;8.10;99.90;;;;;;5067329;28;20045;-73
2022/03/31 03:53:26;;;;;;;5.30;4.60;;;8.00;99.90;;;;;;5061352;28;20375;-72
2022/03/31 03:55:52;;;;;;;6.40;4.97;;;7.50;99.90;;;;;;5031792;28;20079;-72
2022/03/31 03:58:18;;;;;;;4.93;4.43;;;7.90;99.90;;;;;;5062979;28;20099;-73
2022/03/31 04:00:44;;;;;;;5.78;5.18;;;8.10;99.90;;;;;;5045304;28;20045;-73
2022/03/31 04:03:10;;;;;;;7.45;5.38;;;8.00;99.90;;;;;;5027968;28;20054;-73
2022/03/31 04:05:37;;;;;;;6.60;5.90;;;7.50;99.90;;;;;;5060012;28;20036;-74
2022/03/31 04:08:03;;;;;;;5.50;4.97;;;7.50;99.90;;;;;;5076239;28;20095;-73
2022/03/31 04:10:29;;;;;;;8.80;5.32;;;8.30;99.90;;;;;;5080555;28;20041;-74
2022/03/31 04:12:54;;;;;;;4.72;4.22;;;8.00;99.90;;;;;;5062932;28;20080;-73
2022/03/31 04:15:20;;;;;;;4.82;4.32;;;8.00;99.90;;;;;;5080089;28;20040;-73
2022/03/31 04:17:46;;;;;;;4.10;3.70;;;8.50;99.90;;;;;;5076234;28;20078;-73
2022/03/31 04:20:13;;;;;;;4.70;3.83;;;8.10;99.90;;;;;;5070909;28;20303;-74
2022/03/31 04:22:39;;;;;;;3.85;3.47;;;8.10;99.90;;;;;;5066061;28;20048;-74
2022/03/31 04:25:10;;;;;;;4.13;3.63;;;6.50;99.90;;;;;;5074939;28;20041;-74
2022/03/31 04:27:37;;;;;;;4.97;3.72;;;8.10;99.90;;;;;;5054494;28;20047;-74
2022/03/31 04:30:05;;;;;;;4.57;4.10;;;8.50;99.90;;;;;;5062196;28;20039;-74
2022/03/31 04:32:31;;;;;;;4.85;3.95;;;8.20;99.90;;;;;;5062100;28;20118;-74
2022/03/31 04:34:57;;;;;;;5.25;4.10;;;7.60;99.90;;;;;;5079748;28;20107;-74
2022/03/31 04:37:23;;;;;;;3.65;3.20;;;7.80;99.90;;;;;;5073141;28;20216;-74
2022/03/31 04:39:49;;;;;;;3.95;3.55;;;7.90;99.90;;;;;;5062553;28;20052;-74
2022/03/31 04:42:15;;;;;;;3.97;3.58;;;8.20;99.90;;;;;;5046528;28;20032;-73
2022/03/31 04:44:40;;;;;;;4.35;3.95;;;7.80;99.90;;;;;;5042077;28;20041;-74
2022/03/31 04:47:07;;;;;;;3.40;3.10;;;7.70;99.90;;;;;;5069225;28;20044;-74
2022/03/31 04:49:33;;;;;;;3.45;3.15;;;7.70;99.90;;;;;;5060609;28;20096;-73
2022/03/31 04:51:59;;;;;;;3.72;3.35;;;7.90;99.90;;;;;;5079544;28;20048;-73
2022/03/31 04:54:25;;;;;;;3.47;3.13;;;9.40;99.90;;;;;;5077653;28;20081;-72
2022/03/31 04:56:51;;;;;;;3.33;3.03;;;8.00;99.90;;;;;;5065775;28;20032;-73
2022/03/31 04:59:16;;;;;;;4.35;3.05;;;8.30;99.90;;;;;;5061385;28;20079;-72
2022/03/31 05:01:42;;;;;;;4.85;3.42;;;7.80;99.90;;;;;;5061316;28;20255;-73
2022/03/31 05:04:09;;;;;;;3.70;3.20;;;8.10;99.90;;;;;;5079051;28;20044;-74
2022/03/31 05:06:35;;;;;;;3.70;3.30;;;9.40;99.90;;;;;;5058189;28;20047;-73
2022/03/31 05:09:02;;;;;;;3.50;3.20;;;8.30;99.90;;;;;;5050731;28;20070;-73
2022/03/31 05:11:28;;;;;;;3.35;2.92;;;8.10;99.90;;;;;;5067128;28;20044;-72
2022/03/31 05:13:54;;;;;;;4.10;3.75;;;10.20;99.90;;;;;;5079589;28;20036;-72
2022/03/31 05:16:19;;;;;;;4.05;3.65;;;8.00;99.90;;;;;;5072404;28;20025;-73
2022/03/31 05:18:47;;;;;;;3.97;3.58;;;9.10;99.90;;;;;;5061467;28;20331;-74
2022/03/31 05:21:13;;;;;;;4.60;3.80;;;8.10;99.90;;;;;;5079083;28;20040;-72
2022/03/31 05:23:39;;;;;;;4.63;3.78;;;8.20;99.90;;;;;;5039574;28;20047;-73
2022/03/31 05:26:05;;;;;;;3.85;3.45;;;8.90;99.90;;;;;;5050685;28;20036;-75
2022/03/31 05:28:31;;;;;;;4.72;3.70;;;8.90;99.90;;;;;;5042008;28;20125;-75
2022/03/31 05:30:57;;;;;;;4.90;3.92;;;9.90;99.90;;;;;;5043145;28;20061;-73
2022/03/31 05:33:22;;;;;;;4.68;4.22;;;9.40;99.90;;;;;;5076565;28;20041;-73
2022/03/31 05:35:48;;;;;;;4.40;4.00;;;8.20;99.90;;;;;;5078452;28;20067;-74
2022/03/31 05:38:14;;;;;;;4.22;3.83;;;9.70;99.90;;;;;;5041650;28;20294;-73
2022/03/31 05:40:39;;;;;;;4.78;4.28;;;9.40;99.90;;;;;;5078064;28;20052;-73
2022/03/31 05:43:05;;;;;;;4.82;4.32;;;8.40;99.90;;;;;;5059682;28;20120;-73
2022/03/31 05:45:31;;;;;;;5.93;4.85;;;9.70;99.90;;;;;;5061208;28;20087;-73
2022/03/31 05:47:57;;;;;;;5.20;4.70;;;9.60;99.90;;;;;;5074350;28;20036;-74
2022/03/31 05:50:23;;;;;;;5.90;4.93;;;9.30;99.90;;;;;;5053215;28;20103;-73
2022/03/31 05:52:48;;;;;;;5.32;4.80;;;8.60;99.90;;;;;;5060531;28;20098;-73
2022/03/31 05:55:16;;;;;;;6.03;5.38;;;8.50;99.90;;;;;;5065612;28;20094;-74
2022/03/31 05:57:42;;;;;;;6.15;5.40;;;9.50;99.90;;;;;;5061418;28;20044;-74
2022/03/31 06:00:13;;;;;;;6.60;5.85;;;9.70;99.90;;;;;;5065186;28;20430;-72
2022/03/31 06:02:40;;;;;;;5.55;4.78;;;8.50;99.90;;;;;;5061130;28;20078;-73
2022/03/31 06:05:07;;;;;;;4.70;4.00;;;8.80;99.90;;;;;;5071607;28;20337;-73
2022/03/31 06:07:33;;;;;;;5.13;4.63;;;9.60;99.90;;;;;;5070666;28;20247;-73
2022/03/31 06:10:00;;;;;;;4.90;4.40;;;9.10;99.90;;;;;;5064399;28;20029;-73
2022/03/31 06:12:26;;;;;;;6.30;5.70;;;9.90;99.90;;;;;;5067528;28;20045;-77
2022/03/31 06:14:51;;;;;;;6.65;5.88;;;10.50;99.90;;;;;;5059301;28;20094;-78
2022/03/31 06:17:17;;;;;;;6.00;5.40;;;9.60;99.90;;;;;;5045139;28;20063;-76
2022/03/31 06:19:43;;;;;;;6.22;5.63;;;8.80;99.90;;;;;;5049717;28;20040;-77
2022/03/31 06:22:09;;;;;;;5.70;5.10;;;10.40;99.90;;;;;;5056517;28;20086;-77
2022/03/31 06:24:35;;;;;;;7.50;6.07;;;8.80;99.90;;;;;;5032262;28;20331;-76
2022/03/31 06:27:02;;;;;;;7.28;6.13;;;8.60;99.90;;;;;;5081663;28;20077;-77
2022/03/31 06:29:29;;;;;;;7.70;6.53;;;9.90;99.90;;;;;;5040656;28;20044;-77
2022/03/31 06:31:55;;;;;;;8.10;6.97;;;10.20;99.90;;;;;;5048761;28;20044;-76
2022/03/31 06:34:21;;;;;;;8.00;6.90;;;10.40;99.90;;;;;;5072523;28;20219;-77
2022/03/31 06:36:47;;;;;;;8.48;7.53;;;8.80;99.90;;;;;;5063292;28;20243;-77
2022/03/31 06:39:13;;;;;;;8.77;7.18;;;9.70;99.90;;;;;;5058661;28;20090;-76
2022/03/31 06:41:42;;;;;;;7.45;6.68;;;10.50;99.90;;;;;;5081192;28;20204;-76
2022/03/31 06:44:12;;;;;;;7.85;7.00;;;9.20;99.90;;;;;;5077569;28;20219;-76
2022/03/31 06:46:38;;;;;;;8.50;7.60;;;10.50;99.90;;;;;;5065365;28;20063;-76
2022/03/31 06:49:04;;;;;;;9.23;7.97;;;9.80;99.90;;;;;;5027712;28;20041;-76
2022/03/31 06:51:30;;;;;;;8.80;7.85;;;8.70;99.90;;;;;;5049071;28;20312;-76
2022/03/31 06:53:57;;;;;;;10.02;8.07;;;8.80;99.90;;;;;;5056504;28;20041;-76
2022/03/31 06:56:27;;;;;;;9.50;8.38;;;9.50;99.90;;;;;;5062798;28;20044;-76
2022/03/31 06:58:53;;;;;;;8.50;7.53;;;10.50;99.90;;;;;;5062645;28;20036;-76
2022/03/31 07:01:19;;;;;;;8.93;8.00;;;10.40;99.90;;;;;;5063850;28;20038;-76
2022/03/31 07:03:45;;;;;;;8.68;6.90;;;8.80;99.90;;;;;;5059031;28;20040;-75
2022/03/31 07:06:11;;;;;;;8.00;7.20;;;9.40;99.90;;;;;;5058462;28;20033;-75
2022/03/31 07:08:36;;;;;;;7.82;7.03;;;8.90;99.90;;;;;;5078335;28;20032;-75
2022/03/31 07:11:03;;;;;;;8.15;7.20;;;9.30;99.90;;;;;;5047908;28;20489;-75
2022/03/31 07:13:29;;;;;;;7.80;6.85;;;10.40;99.90;;;;;;5043585;28;20464;-75
2022/03/31 07:15:55;;;;;;;9.63;6.97;;;10.60;99.90;;;;;;5068260;28;20044;-75
2022/03/31 07:18:21;;;;;;;7.97;6.90;;;10.80;99.90;;;;;;5057285;28;20110;-75
2022/03/31 07:20:47;;;;;;;8.77;7.75;;;9.00;99.90;;;;;;5058998;28;20036;-76
2022/03/31 07:23:12;;;;;;;10.70;8.63;;;9.00;99.90;;;;;;5054341;28;20037;-75
2022/03/31 07:25:39;;;;;;;10.15;8.70;;;10.60;99.90;;;;;;5070423;28;20235;-77
2022/03/31 07:28:05;;;;;;;8.82;7.72;;;10.60;99.90;;;;;;5050825;28;20029;-76
2022/03/31 07:30:31;;;;;;;8.52;7.47;;;10.40;99.90;;;;;;5062482;28;20273;-75
2022/03/31 07:32:59;;;;;;;8.65;7.28;;;9.10;99.90;;;;;;5061118;28;20032;-75
2022/03/31 07:35:29;;;;;;;7.50;6.63;;;9.30;99.90;;;;;;5075237;28;20056;-75
2022/03/31 07:37:56;;;;;;;7.43;6.43;;;10.00;99.90;;;;;;5058872;28;20055;-77
2022/03/31 07:40:23;;;;;;;8.35;6.40;;;9.00;99.90;;;;;;5074552;28;20098;-78
2022/03/31 07:42:50;;;;;;;8.48;6.80;;;10.80;99.90;;;;;;5047501;28;20044;-78
2022/03/31 07:45:17;;;;;;;7.43;5.78;;;9.70;99.90;;;;;;5062014;28;20045;-76
2022/03/31 07:47:43;;;;;;;6.50;5.50;;;10.90;99.90;;;;;;5061024;28;20054;-78
2022/03/31 07:50:12;;;;;;;5.78;5.05;;;9.60;99.90;;;;;;5062607;28;20342;-77
2022/03/31 07:52:38;;;;;;;7.75;6.95;;;10.80;99.90;;;;;;5036240;28;20037;-76
2022/03/31 07:55:06;;;;;;;7.85;6.25;;;10.70;99.90;;;;;;5054790;28;20025;-76
2022/03/31 07:57:33;;;;;;;9.68;7.60;;;10.60;99.90;;;;;;5055972;28;20037;-75
2022/03/31 07:59:59;;;;;;;8.65;7.05;;;9.70;99.90;;;;;;5079891;28;20087;-77
2022/03/31 08:02:26;;;;;;;9.00;7.60;;;10.20;99.90;;;;;;5052868;28;20045;-76
2022/03/31 08:04:55;;;;;;;9.60;8.20;;;10.50;99.90;;;;;;5034861;28;20052;-76
2022/03/31 08:07:21;;;;;;;9.25;7.72;;;8.80;99.90;;;;;;5067532;28;20047;-76
2022/03/31 08:09:47;;;;;;;9.70;8.02;;;9.10;99.90;;;;;;5049536;28;20062;-77
2022/03/31 08:12:12;;;;;;;10.82;8.68;;;8.80;99.90;;;;;;5053068;28;20049;-78
2022/03/31 08:14:38;;;;;;;9.70;7.97;;;10.20;99.90;;;;;;5048150;28;20032;-77
2022/03/31 08:17:04;;;;;;;10.80;8.48;;;9.80;99.90;;;;;;5035219;28;20079;-76
2022/03/31 08:19:32;;;;;;;10.52;8.45;;;10.10;99.90;;;;;;5062153;28;20028;-76
2022/03/31 08:22:01;;;;;;;9.43;7.95;;;8.60;99.90;;;;;;5069595;28;20137;-76
2022/03/31 08:24:27;;;;;;;10.32;8.38;;;10.60;99.90;;;;;;5048810;28;20091;-78
2022/03/31 08:26:53;;;;;;;10.55;8.77;;;8.80;99.90;;;;;;5062524;28;20313;-78
2022/03/31 08:29:19;;;;;;;12.32;8.77;;;8.70;99.90;;;;;;5060916;28;20108;-77
2022/03/31 08:31:48;;;;;;;10.10;7.97;;;8.70;99.90;;;;;;5061841;28;20304;-78
2022/03/31 08:34:16;;;;;;;9.88;7.90;;;9.40;99.90;;;;;;5042833;28;20161;-77
2022/03/31 08:36:42;;;;;;;9.50;8.48;;;9.20;99.90;;;;;;5053483;28;20052;-80
2022/03/31 08:39:08;;;;;;;9.82;7.72;;;9.80;99.90;;;;;;5033658;28;20086;-79
2022/03/31 08:41:34;;;;;;;9.88;7.35;;;9.90;99.90;;;;;;5055499;28;20115;-79
2022/03/31 08:44:00;;;;;;;10.85;8.10;;;10.10;99.90;;;;;;5046079;28;20042;-78
2022/03/31 08:46:34;;;;;;;14.65;9.93;;;10.10;99.90;;;;;;5047304;28;20242;-78
2022/03/31 08:49:01;;;;;;;14.63;10.60;;;9.50;99.90;;;;;;5070069;28;20234;-78
2022/03/31 08:51:27;;;;;;;25.88;15.30;;;9.40;99.90;;;;;;5072561;28;20052;-79
2022/03/31 08:54:29;;;;;;;19.40;14.00;;;8.50;99.90;;;;;;5034059;28;20041;-78
2022/03/31 08:56:55;;;;;;;17.73;12.18;;;8.30;99.90;;;;;;5067976;28;20044;-78
2022/03/31 08:59:21;;;;;;;18.17;12.93;;;8.60;99.90;;;;;;5061469;28;20075;-75
2022/03/31 09:01:46;;;;;;;17.70;12.38;;;8.40;99.90;;;;;;5044847;28;20124;-74
2022/03/31 09:04:22;;;;;;;21.55;13.50;;;10.10;99.90;;;;;;5042131;28;20108;-74
2022/03/31 09:07:08;;;;;;;18.20;11.02;;;10.10;99.90;;;;;;5053931;28;20297;-75
2022/03/31 09:09:44;;;;;;;14.68;9.93;;;8.20;99.90;;;;;;5069967;28;20067;-75
2022/03/31 09:12:10;;;;;;;12.32;9.60;;;9.70;99.90;;;;;;5049778;28;20326;-75
2022/03/31 09:14:36;;;;;;;11.93;8.18;;;9.90;99.90;;;;;;5064805;28;20043;-75
2022/03/31 09:17:16;;;;;;;12.43;8.75;;;8.20;99.90;;;;;;5052045;28;20245;-74
2022/03/31 09:19:44;;;;;;;11.23;8.02;;;9.30;99.90;;;;;;5038039;28;20044;-74
2022/03/31 09:22:16;;;;;;;12.82;9.80;;;8.90;99.90;;;;;;5048863;28;20106;-74
2022/03/31 09:24:41;;;;;;;9.98;7.75;;;8.30;99.90;;;;;;5034690;28;20077;-74
2022/03/31 09:27:07;;;;;;;9.48;6.85;;;9.50;99.90;;;;;;5038008;28;20044;-74
2022/03/31 09:29:33;;;;;;;7.35;5.65;;;9.50;99.90;;;;;;5073110;28;20296;-74
2022/03/31 09:32:26;;;;;;;8.18;6.13;;;9.50;99.90;;;;;;5047136;28;20666;-74
2022/03/31 09:34:51;;;;;;;7.97;5.72;;;9.60;99.90;;;;;;5041325;28;20072;-74
2022/03/31 09:37:17;;;;;;;7.32;5.80;;;8.10;99.90;;;;;;5049726;28;20057;-75
2022/03/31 09:39:54;;;;;;;7.13;5.70;;;8.30;99.90;;;;;;5072407;28;20056;-74
2022/03/31 09:42:20;;;;;;;7.88;6.15;;;7.90;99.90;;;;;;5048411;28;20338;-74
2022/03/31 09:44:56;;;;;;;10.38;8.07;;;10.10;99.90;;;;;;5056468;28;20102;-74
2022/03/31 09:47:21;;;;;;;12.13;8.20;;;9.40;99.90;;;;;;5061287;28;20052;-74
2022/03/31 09:49:54;;;;;;;12.77;8.52;;;7.60;99.90;;;;;;5071648;28;20071;-74
2022/03/31 09:52:20;;;;;;;12.55;8.68;;;8.00;99.90;;;;;;5030415;28;20041;-73
2022/03/31 09:54:48;;;;;;;13.00;10.25;;;8.10;99.90;;;;;;5055655;28;20100;-74
2022/03/31 09:57:18;;;;;;;10.55;7.88;;;9.10;99.90;;;;;;5061551;28;20041;-77
2022/03/31 09:59:54;;;;;;;10.32;6.97;;;9.00;99.90;;;;;;5060371;28;20049;-78
2022/03/31 10:02:23;;;;;;;10.18;6.70;;;8.40;99.90;;;;;;5057839;28;20169;-77
2022/03/31 10:04:49;;;;;;;8.43;6.20;;;7.90;99.90;;;;;;5053065;28;20087;-78
2022/03/31 10:07:15;;;;;;;7.82;5.90;;;7.40;99.90;;;;;;5060601;28;20132;-78
2022/03/31 10:09:44;;;;;;;8.25;6.03;;;8.80;99.90;;;;;;5037766;28;20076;-77
2022/03/31 10:12:37;;;;;;;11.23;7.70;;;9.70;99.90;;;;;;5029287;28;20052;-78
2022/03/31 10:15:12;;;;;;;9.70;6.97;;;7.90;99.90;;;;;;5032463;28;20040;-80
2022/03/31 10:17:42;;;;;;;10.95;7.85;;;9.40;99.90;;;;;;5064945;28;20125;-80
2022/03/31 10:20:13;;;;;;;8.55;6.55;;;7.10;99.90;;;;;;5043945;28;20048;-80
2022/03/31 10:25:37;;;;;;;8.82;6.88;;;7.40;99.90;;;;;;5058896;28;20051;-79
2022/03/31 10:28:14;;;;;;;7.22;5.72;;;8.90;99.90;;;;;;5065872;28;20284;-79
2022/03/31 10:30:55;;;;;;;6.47;5.10;;;9.10;99.90;;;;;;5047733;28;20098;-79
2022/03/31 10:33:43;;;;;;;6.32;5.18;;;8.80;99.90;;;;;;5044107;28;20041;-80
2022/03/31 10:36:14;;;;;;;8.00;5.45;;;9.50;99.90;;;;;;5041737;28;20052;-78
2022/03/31 10:38:59;;;;;;;7.35;5.32;;;9.00;99.90;;;;;;5074216;28;20040;-79
2022/03/31 10:41:33;;;;;;;6.15;4.72;;;7.80;99.90;;;;;;5040668;28;20049;-79
2022/03/31 10:44:03;;;;;;;6.50;4.95;;;7.50;99.90;;;;;;5042787;28;20551;-80
2022/03/31 10:46:32;;;;;;;8.38;4.72;;;9.10;99.90;;;;;;5041548;28;20131;-79
2022/03/31 10:49:01;;;;;;;6.70;5.55;;;8.00;99.90;;;;;;5037095;28;20051;-79
2022/03/31 10:51:37;;;;;;;5.50;4.15;;;7.50;99.90;;;;;;5040657;28;20106;-79
2022/03/31 10:54:05;;;;;;;6.43;5.35;;;7.40;99.90;;;;;;5073297;28;20410;-80
2022/03/31 10:56:32;;;;;;;8.32;5.60;;;7.40;99.90;;;;;;5057488;28;20033;-80
2022/03/31 10:59:00;;;;;;;17.42;7.82;;;9.30;99.90;;;;;;5049111;28;20047;-80
2022/03/31 11:01:33;;;;;;;7.75;5.10;;;9.40;99.90;;;;;;5049652;28;20052;-81
2022/03/31 11:04:02;;;;;;;9.98;5.65;;;8.00;99.90;;;;;;5054914;28;20322;-81
2022/03/31 11:06:29;;;;;;;7.32;4.95;;;9.80;99.90;;;;;;5055612;28;20063;-80
2022/03/31 11:08:55;;;;;;;7.57;5.00;;;9.40;99.90;;;;;;5060354;28;20079;-80
2022/03/31 11:11:41;;;;;;;5.10;4.18;;;7.40;99.90;;;;;;5053190;28;20049;-78
2022/03/31 11:14:09;;;;;;;5.18;4.10;;;9.00;99.90;;;;;;5044072;28;20055;-78
2022/03/31 11:16:39;;;;;;;6.70;4.50;;;9.30;99.90;;;;;;5043066;28;20246;-78
2022/03/31 11:19:07;;;;;;;6.80;4.95;;;7.40;99.90;;;;;;5047196;28;20080;-70
2022/03/31 11:21:45;;;;;;;7.40;5.07;;;8.10;99.90;;;;;;5059404;28;20384;-78
2022/03/31 11:24:12;;;;;;;5.53;4.20;;;7.70;99.90;;;;;;5076397;28;20079;-78
2022/03/31 11:26:46;;;;;;;5.82;4.38;;;9.60;99.90;;;;;;5046152;28;20063;-78
2022/03/31 11:29:14;;;;;;;6.20;4.32;;;9.70;99.90;;;;;;5043656;28;20048;-77
2022/03/31 11:31:47;;;;;;;6.30;4.80;;;8.30;99.90;;;;;;5059370;28;20048;-78
2022/03/31 11:34:22;;;;;;;7.45;4.43;;;7.70;99.90;;;;;;5047843;28;20230;-76
2022/03/31 11:36:55;;;;;;;5.63;4.50;;;7.50;99.90;;;;;;5075301;28;20116;-76
2022/03/31 11:39:30;;;;;;;5.68;4.72;;;7.50;99.90;;;;;;5056506;28;20465;-77
2022/03/31 11:41:57;;;;;;;4.78;4.07;;;7.80;99.90;;;;;;5061318;28;20354;-76
2022/03/31 11:44:30;;;;;;;5.53;4.50;;;8.30;99.90;;;;;;5071361;28;20219;-76
2022/03/31 11:46:56;;;;;;;6.72;5.22;;;8.50;99.90;;;;;;5050812;28;20079;-75
2022/03/31 11:49:24;;;;;;;6.05;5.07;;;8.90;99.90;;;;;;5056948;28;20044;-76
2022/03/31 11:51:59;;;;;;;5.93;5.13;;;8.50;99.90;;;;;;5058379;28;20110;-76
2022/03/31 11:54:26;;;;;;;6.75;4.63;;;8.00;99.90;;;;;;5071616;28;20043;-76
2022/03/31 11:57:06;;;;;;;6.20;4.82;;;9.90;99.90;;;;;;5058144;28;20036;-76
2022/03/31 11:59:34;;;;;;;5.82;4.57;;;8.60;99.90;;;;;;5076255;28;20127;-76
2022/03/31 12:02:00;;;;;;;6.97;5.55;;;8.70;99.90;;;;;;5058957;28;20154;-75
2022/03/31 12:04:29;;;;;;;6.63;5.50;;;9.30;99.90;;;;;;5045529;28;20052;-76
2022/03/31 12:06:56;;;;;;;7.20;5.88;;;7.80;99.90;;;;;;5075890;28;20119;-76
2022/03/31 12:09:26;;;;;;;6.05;5.05;;;8.50;99.90;;;;;;5074318;28;20044;-75
2022/03/31 12:11:53;;;;;;;6.97;6.00;;;9.60;99.90;;;;;;5076071;28;20044;-78
2022/03/31 12:14:19;;;;;;;7.20;5.85;;;10.10;99.90;;;;;;5062864;28;20051;-74
2022/03/31 12:16:50;;;;;;;6.85;6.10;;;10.30;99.90;;;;;;5056637;28;20112;-76
2022/03/31 12:19:17;;;;;;;8.55;6.07;;;10.00;99.90;;;;;;5055977;28;20044;-75
2022/03/31 12:21:46;;;;;;;8.05;6.40;;;8.40;99.90;;;;;;5059277;28;20056;-77
2022/03/31 12:24:12;;;;;;;8.57;6.78;;;8.60;99.90;;;;;;5058703;28;20044;-73
2022/03/31 12:26:40;;;;;;;9.52;8.02;;;10.60;99.90;;;;;;5062877;28;20154;-77
2022/03/31 12:29:19;;;;;;;9.75;7.95;;;10.40;99.90;;;;;;5058005;28;20055;-76
2022/03/31 12:31:45;;;;;;;9.55;8.30;;;10.70;99.90;;;;;;5058776;28;20098;-79
2022/03/31 12:34:14;;;;;;;9.48;7.90;;;9.60;99.90;;;;;;5057036;28;20270;-74
2022/03/31 12:36:42;;;;;;;10.35;8.65;;;8.70;99.90;;;;;;5045356;28;20048;-77
2022/03/31 12:39:08;;;;;;;10.10;7.90;;;8.60;99.90;;;;;;5041629;28;20427;-77
2022/03/31 12:41:36;;;;;;;10.38;8.02;;;10.70;99.90;;;;;;5042417;28;20048;-79
2022/03/31 12:44:12;;;;;;;13.40;7.93;;;8.60;99.90;;;;;;5057260;28;20048;-73
2022/03/31 12:46:52;;;;;;;11.13;9.35;;;8.90;99.90;;;;;;5058440;28;20174;-76
2022/03/31 12:49:39;;;;;;;11.13;8.32;;;10.70;99.90;;;;;;5075256;28;20052;-74
2022/03/31 12:52:12;;;;;;;10.95;8.43;;;9.00;99.90;;;;;;5074268;28;20104;-76
2022/03/31 12:54:49;;;;;;;13.57;10.27;;;10.80;99.90;;;;;;5055359;28;20329;-74
2022/03/31 12:57:21;;;;;;;12.40;10.10;;;9.00;99.90;;;;;;5059528;28;20408;-74
2022/03/31 13:00:13;;;;;;;13.93;9.63;;;10.60;99.90;;;;;;5068093;28;20499;-74
2022/03/31 13:02:41;;;;;;;12.20;9.73;;;9.00;99.90;;;;;;5060647;28;20045;-76